Time,TemperatureF,DewpointF,PressureIn,WindDirection,WindDirectionDegrees,WindSpeedMPH,WindSpeedGustMPH,Humidity,HourlyPrecipIn,Conditions,Clouds,dailyrainin,SoftwareType,DateUTC
2013-07-08 00:01:00,72.8,49.6,30.08,ENE,58,8.1,8.1,44,0.00,-RA,OVC,0.00,WeatherDisplay:10.37,2013-07-08 06:01:00,
2013-07-08 00:06:00,73.1,49.9,30.08,ENE,59,5.8,5.8,44,0.00,-RA,OVC,0.00,WeatherDisplay:10.37,2013-07-08 06:06:00,
2013-07-08 00:11:00,73.2,50.0,30.08,ENE,59,10.4,10.4,44,0.00,-RA,OVC,0.00,WeatherDisplay:10.37,2013-07-08 06:11:00,
2013-07-08 00:16:00,73.3,50.1,30.08,ENE,59,3.5,3.5,44,0.00,-RA,OVC,0.00,WeatherDisplay:10.37,2013-07-08 06:16:00,
2013-07-08 00:21:00,73.4,50.2,30.08,ESE,106,4.6,4.6,44,0.00,-RA,OVC,0.00,WeatherDisplay:10.37,2013-07-08 06:21:00,
2013-07-08 00:26:00,73.3,50.1,30.08,ESE,116,3.5,3.5,44,0.00,-RA,OVC,0.00,WeatherDisplay:10.37,2013-07-08 06:26:00,
2013-07-08 00:31:00,73.1,49.9,30.08,ESE,115,2.3,0.0,44,0.00,-RA,OVC,0.00,WeatherDisplay:10.37,2013-07-08 06:31:00,
2013-07-08 00:36:00,72.8,50.2,30.08,ENE,76,1.1,1.1,45,0.00,-RA,OVC,0.00,WeatherDisplay:10.37,2013-07-08 06:36:00,
2013-07-08 00:41:00,72.5,50.5,30.08,ESE,113,5.8,5.8,46,0.00,-RA,OVC,0.00,WeatherDisplay:10.37,2013-07-08 06:41:00,
2013-07-08 00:46:00,72.3,50.4,30.08,SE,128,2.3,2.3,46,0.00,-RA,OVC,0.00,WeatherDisplay:10.37,2013-07-08 06:46:00,
2013-07-08 00:51:00,72.1,50.2,30.08,SE,128,0.0,0.0,46,0.00,-RA,OVC,0.00,WeatherDisplay:10.37,2013-07-08 06:51:00,
2013-07-08 00:56:00,71.8,50.5,30.08,SE,128,0.0,0.0,47,0.00,-RA,OVC,0.00,WeatherDisplay:10.37,2013-07-08 06:56:00,
2013-07-08 01:01:00,71.3,50.6,30.08,SE,128,0.0,0.0,48,0.00,-RA,OVC,0.00,WeatherDisplay:10.37,2013-07-08 07:01:00,
2013-07-08 01:06:00,70.7,50.6,30.08,SE,128,0.0,0.0,49,0.00,-RA,OVC,0.00,WeatherDisplay:10.37,2013-07-08 07:06:00,
2013-07-08 01:11:00,70.1,50.6,30.08,SE,128,0.0,0.0,50,0.00,-RA,OVC,0.00,WeatherDisplay:10.37,2013-07-08 07:11:00,
2013-07-08 01:16:00,69.4,50.5,30.08,SE,128,0.0,0.0,51,0.00,-RA,OVC,0.00,WeatherDisplay:10.37,2013-07-08 07:16:00,
2013-07-08 01:21:00,68.9,50.5,30.08,SE,126,0.0,0.1,52,0.00,-RA,OVC,0.00,WeatherDisplay:10.37,2013-07-08 07:21:00,
2013-07-08 01:26:00,68.5,50.7,30.08,SE,125,0.0,0.0,53,0.00,-RA,OVC,0.00,WeatherDisplay:10.37,2013-07-08 07:26:00,
2013-07-08 01:31:00,68.1,50.8,30.08,SE,125,0.0,0.0,54,0.00,-RA,OVC,0.00,WeatherDisplay:10.37,2013-07-08 07:31:00,
2013-07-08 01:36:00,67.8,51.5,30.08,SE,126,1.1,1.1,56,0.00,-RA,OVC,0.00,WeatherDisplay:10.37,2013-07-08 07:36:00,
2013-07-08 01:41:00,67.2,51.0,30.08,SE,126,1.1,0.0,56,0.00,-RA,OVC,0.00,WeatherDisplay:10.37,2013-07-08 07:41:00,
2013-07-08 01:46:00,66.8,51.1,30.08,SE,126,0.0,0.0,57,0.00,-RA,OVC,0.00,WeatherDisplay:10.37,2013-07-08 07:46:00,
2013-07-08 01:51:00,66.3,51.5,30.08,SE,126,0.0,0.0,59,0.00,-RA,OVC,0.00,WeatherDisplay:10.37,2013-07-08 07:51:00,
2013-07-08 01:56:00,65.8,51.5,30.08,SE,126,0.0,0.0,60,0.00,-RA,OVC,0.00,WeatherDisplay:10.37,2013-07-08 07:56:00,
2013-07-08 02:01:00,65.3,51.5,30.08,SE,126,0.0,0.0,61,0.00,-RA,OVC,0.00,WeatherDisplay:10.37,2013-07-08 08:01:00,
2013-07-08 02:06:00,64.8,51.9,30.08,SE,126,0.0,0.0,63,0.00,-RA,OVC,0.00,WeatherDisplay:10.37,2013-07-08 08:06:00,
2013-07-08 02:11:00,64.4,52.0,30.08,SE,126,0.0,0.0,64,0.00,-RA,OVC,0.00,WeatherDisplay:10.37,2013-07-08 08:11:00,
2013-07-08 02:16:00,64.2,52.2,30.08,SE,126,0.0,0.0,65,0.00,-RA,OVC,0.00,WeatherDisplay:10.37,2013-07-08 08:16:00,
2013-07-08 02:21:00,63.9,51.9,30.08,SE,126,0.0,0.0,65,0.00,-RA,OVC,0.00,WeatherDisplay:10.37,2013-07-08 08:21:00,
2013-07-08 02:26:00,63.8,52.2,30.08,SE,126,0.0,0.0,66,0.00,-RA,OVC,0.00,WeatherDisplay:10.37,2013-07-08 08:26:00,
2013-07-08 02:31:00,63.7,52.5,30.08,SE,126,0.0,0.0,67,0.00,-RA,OVC,0.00,WeatherDisplay:10.37,2013-07-08 08:31:00,
2013-07-08 02:36:00,63.7,52.5,30.08,SE,126,0.0,0.0,67,0.00,-RA,OVC,0.00,WeatherDisplay:10.37,2013-07-08 08:36:00,
2013-07-08 02:41:00,63.9,51.5,30.08,SE,125,3.5,3.5,64,0.00,-RA,OVC,0.00,WeatherDisplay:10.37,2013-07-08 08:41:00,
2013-07-08 02:46:00,64.4,51.5,30.08,SE,125,0.0,0.0,63,0.00,-RA,OVC,0.00,WeatherDisplay:10.37,2013-07-08 08:46:00,
2013-07-08 02:51:00,64.9,51.6,30.08,SE,125,0.0,0.3,62,0.00,-RA,OVC,0.00,WeatherDisplay:10.37,2013-07-08 08:51:00,
2013-07-08 02:56:00,65.2,51.4,30.08,SE,126,0.0,0.0,61,0.00,-RA,OVC,0.00,WeatherDisplay:10.37,2013-07-08 08:56:00,
2013-07-08 03:01:00,65.4,52.0,30.08,SE,125,3.5,0.0,62,0.00,-RA,OVC,0.00,WeatherDisplay:10.37,2013-07-08 09:01:00,
2013-07-08 03:06:00,65.4,51.6,30.08,SE,125,0.0,0.0,61,0.00,-RA,OVC,0.00,WeatherDisplay:10.37,2013-07-08 09:06:00,
2013-07-08 03:11:00,65.5,51.7,30.08,SE,125,1.0,0.0,61,0.00,-RA,OVC,0.00,WeatherDisplay:10.37,2013-07-08 09:11:00,
2013-07-08 03:16:00,66.3,50.6,30.08,ESE,117,11.5,11.5,57,0.00,-RA,OVC,0.00,WeatherDisplay:10.37,2013-07-08 09:16:00,
2013-07-08 03:21:00,69.4,49.9,30.08,ESE,116,10.4,10.4,50,0.00,-RA,OVC,0.00,WeatherDisplay:10.37,2013-07-08 09:21:00,
2013-07-08 03:26:00,71.7,50.4,30.08,ENE,67,11.5,11.5,47,0.00,-RA,OVC,0.00,WeatherDisplay:10.37,2013-07-08 09:26:00,
2013-07-08 03:31:00,72.8,50.2,30.08,ENE,57,5.0,6.0,45,0.00,-RA,OVC,0.00,WeatherDisplay:10.37,2013-07-08 09:31:00,
2013-07-08 03:36:00,73.4,49.5,30.08,SE,134,10.4,10.4,43,0.00,-RA,OVC,0.00,WeatherDisplay:10.37,2013-07-08 09:36:00,
2013-07-08 03:41:00,73.9,50.0,30.08,ENE,71,16.1,16.1,43,0.00,-RA,OVC,0.00,WeatherDisplay:10.37,2013-07-08 09:41:00,
2013-07-08 03:46:00,74.2,49.6,30.08,East,97,18.4,18.4,42,0.00,-RA,OVC,0.00,WeatherDisplay:10.37,2013-07-08 09:46:00,
2013-07-08 03:51:00,74.5,48.6,30.08,SE,127,12.7,12.7,40,0.00,-RA,OVC,0.00,WeatherDisplay:10.37,2013-07-08 09:51:00,
2013-07-08 03:56:00,75.0,47.7,30.08,ESE,119,5.8,5.8,38,0.00,-RA,OVC,0.00,WeatherDisplay:10.37,2013-07-08 09:56:00,
2013-07-08 04:01:00,75.4,48.7,30.08,ESE,116,3.5,3.5,39,0.00,-RA,OVC,0.00,WeatherDisplay:10.37,2013-07-08 10:01:00,
2013-07-08 04:06:00,75.7,48.3,30.08,ESE,112,11.5,11.5,38,0.00,-RA,OVC,0.00,WeatherDisplay:10.37,2013-07-08 10:06:00,
2013-07-08 04:11:00,75.0,49.0,30.08,ENE,78,19.6,19.6,40,0.00,-RA,OVC,0.00,WeatherDisplay:10.37,2013-07-08 10:11:00,
2013-07-08 04:16:00,74.1,48.9,30.08,East,92,19.6,19.6,41,0.00,-RA,OVC,0.00,WeatherDisplay:10.37,2013-07-08 10:16:00,
2013-07-08 04:21:00,73.5,49.0,30.08,East,90,9.2,9.2,42,0.00,-RA,OVC,0.00,WeatherDisplay:10.37,2013-07-08 10:21:00,
2013-07-08 04:26:00,72.9,49.1,30.08,ESE,123,10.4,10.4,43,0.00,-RA,OVC,0.00,WeatherDisplay:10.37,2013-07-08 10:26:00,
2013-07-08 04:31:00,72.4,49.3,30.08,East,85,11.5,11.5,44,0.00,-RA,OVC,0.00,WeatherDisplay:10.37,2013-07-08 10:31:00,
2013-07-08 04:36:00,71.9,49.4,30.08,NE,38,12.7,12.7,45,0.00,-RA,OVC,0.00,WeatherDisplay:10.37,2013-07-08 10:36:00,
2013-07-08 04:41:00,71.7,49.2,30.08,ESE,113,11.5,11.5,45,0.00,-RA,OVC,0.00,WeatherDisplay:10.37,2013-07-08 10:41:00,
2013-07-08 04:46:00,71.6,48.5,30.08,East,79,4.6,4.9,44,0.00,-RA,OVC,0.00,WeatherDisplay:10.37,2013-07-08 10:46:00,
2013-07-08 04:51:00,71.5,49.0,30.08,SE,129,6.9,6.9,45,0.00,-RA,OVC,0.00,WeatherDisplay:10.37,2013-07-08 10:51:00,
2013-07-08 04:56:00,71.2,49.4,30.09,ESE,120,3.5,3.5,46,0.00,-RA,OVC,0.00,WeatherDisplay:10.37,2013-07-08 10:56:00,
2013-07-08 05:01:00,70.8,49.6,30.09,ESE,122,0.0,0.0,47,0.00,-RA,OVC,0.00,WeatherDisplay:10.37,2013-07-08 11:01:00,
2013-07-08 05:06:00,70.3,49.7,30.09,ESE,122,0.0,0.0,48,0.00,-RA,OVC,0.00,WeatherDisplay:10.37,2013-07-08 11:06:00,
2013-07-08 05:11:00,69.8,49.8,30.09,ESE,122,1.1,1.1,49,0.00,-RA,OVC,0.00,WeatherDisplay:10.37,2013-07-08 11:11:00,
2013-07-08 05:16:00,69.1,48.6,30.09,ESE,122,1.1,1.1,48,0.00,-RA,OVC,0.00,WeatherDisplay:10.37,2013-07-08 11:16:00,
2013-07-08 05:21:00,68.9,48.9,30.09,ESE,122,0.0,0.0,49,0.00,-RA,OVC,0.00,WeatherDisplay:10.37,2013-07-08 11:21:00,
2013-07-08 05:26:00,68.7,48.8,30.09,SSE,148,1.1,1.9,49,0.00,-RA,OVC,0.00,WeatherDisplay:10.37,2013-07-08 11:26:00,
2013-07-08 05:31:00,68.9,48.4,30.09,South,182,6.9,6.9,48,0.00,-RA,OVC,0.00,WeatherDisplay:10.37,2013-07-08 11:31:00,
2013-07-08 05:36:00,69.1,48.0,30.09,SSW,204,4.6,4.6,47,0.00,-RA,OVC,0.00,WeatherDisplay:10.37,2013-07-08 11:36:00,
2013-07-08 05:41:00,69.3,48.2,30.09,South,184,4.6,4.6,47,0.00,-RA,OVC,0.00,WeatherDisplay:10.37,2013-07-08 11:41:00,
2013-07-08 05:46:00,69.3,48.2,30.09,ESE,118,5.0,5.0,47,0.00,-RA,OVC,0.00,WeatherDisplay:10.37,2013-07-08 11:46:00,
2013-07-08 05:51:00,69.3,48.2,30.09,SE,131,4.0,4.0,47,0.00,-RA,OVC,0.00,WeatherDisplay:10.37,2013-07-08 11:51:00,
2013-07-08 05:56:00,69.3,48.2,30.09,ESE,121,3.5,3.5,47,0.00,-RA,OVC,0.00,WeatherDisplay:10.37,2013-07-08 11:56:00,
2013-07-08 06:01:00,69.3,48.8,30.09,ESE,120,3.5,3.5,48,0.00,-RA,OVC,0.00,WeatherDisplay:10.37,2013-07-08 12:01:00,
2013-07-08 06:06:00,69.2,48.7,30.09,ESE,120,0.0,0.0,48,0.00,-RA,OVC,0.00,WeatherDisplay:10.37,2013-07-08 12:06:00,
2013-07-08 06:11:00,69.0,48.5,30.09,South,173,0.0,0.0,48,0.00,-RA,OVC,0.00,WeatherDisplay:10.37,2013-07-08 12:11:00,
2013-07-08 06:16:00,68.7,49.8,30.09,South,173,2.3,0.0,51,0.00,-RA,OVC,0.00,WeatherDisplay:10.37,2013-07-08 12:16:00,
2013-07-08 06:21:00,68.2,49.4,30.09,South,173,1.1,0.0,51,0.00,-RA,OVC,0.00,WeatherDisplay:10.37,2013-07-08 12:21:00,
2013-07-08 06:26:00,67.7,49.9,30.10,South,173,0.0,0.0,53,0.00,-RA,OVC,0.00,WeatherDisplay:10.37,2013-07-08 12:26:00,
2013-07-08 06:31:00,67.3,50.1,30.10,South,173,0.0,0.0,54,0.00,-RA,OVC,0.00,WeatherDisplay:10.37,2013-07-08 12:31:00,
2013-07-08 06:36:00,66.9,50.7,30.10,South,173,0.0,0.0,56,0.00,-RA,OVC,0.00,WeatherDisplay:10.37,2013-07-08 12:36:00,
2013-07-08 06:41:00,66.6,50.9,30.10,South,173,0.0,0.0,57,0.00,-RA,OVC,0.00,WeatherDisplay:10.37,2013-07-08 12:41:00,
2013-07-08 06:46:00,66.4,51.2,30.10,South,173,0.0,0.0,58,0.00,-RA,OVC,0.00,WeatherDisplay:10.37,2013-07-08 12:46:00,
2013-07-08 06:51:00,66.4,51.6,30.10,South,173,0.0,0.0,59,0.00,-RA,OVC,0.00,WeatherDisplay:10.37,2013-07-08 12:51:00,
2013-07-08 06:56:00,66.6,52.3,30.10,South,173,0.0,0.0,60,0.00,-RA,OVC,0.00,WeatherDisplay:10.37,2013-07-08 12:56:00,
2013-07-08 07:01:00,66.8,52.5,30.10,South,173,0.0,0.0,60,0.00,-RA,OVC,0.00,WeatherDisplay:10.37,2013-07-08 13:01:00,
2013-07-08 07:06:00,67.1,53.2,30.10,South,173,0.0,0.0,61,0.00,-RA,OVC,0.00,WeatherDisplay:10.37,2013-07-08 13:06:00,
2013-07-08 07:11:00,67.8,50.5,30.10,ENE,74,2.3,2.3,54,0.00,-RA,OVC,0.00,WeatherDisplay:10.37,2013-07-08 13:11:00,
2013-07-08 07:16:00,69.0,50.1,30.10,ENE,57,3.5,3.5,51,0.00,-RA,OVC,0.00,WeatherDisplay:10.37,2013-07-08 13:16:00,
2013-07-08 07:21:00,70.1,50.6,30.10,ESE,109,3.5,3.5,50,0.00,-RA,OVC,0.00,WeatherDisplay:10.37,2013-07-08 13:21:00,
2013-07-08 07:26:00,71.0,50.3,30.10,ESE,105,1.1,0.0,48,0.00,-RA,OVC,0.00,WeatherDisplay:10.37,2013-07-08 13:26:00,
2013-07-08 07:31:00,71.8,52.2,30.10,ESE,105,0.0,0.0,50,0.00,-RA,OVC,0.00,WeatherDisplay:10.37,2013-07-08 13:31:00,
2013-07-08 07:36:00,72.6,51.8,30.10,ESE,105,1.1,1.1,48,0.00,-RA,OVC,0.00,WeatherDisplay:10.37,2013-07-08 13:36:00,
2013-07-08 07:41:00,73.5,52.6,30.10,ESE,106,1.1,0.0,48,0.00,-RA,OVC,0.00,WeatherDisplay:10.37,2013-07-08 13:41:00,
2013-07-08 07:46:00,74.2,53.2,30.10,ESE,110,1.1,1.1,48,0.00,-RA,OVC,0.00,WeatherDisplay:10.37,2013-07-08 13:46:00,
2013-07-08 07:51:00,74.9,52.1,30.10,ESE,110,0.0,0.1,45,0.00,-RA,OVC,0.00,WeatherDisplay:10.37,2013-07-08 13:51:00,
2013-07-08 07:56:00,75.5,52.7,30.10,ESE,110,0.0,0.0,45,0.00,-RA,OVC,0.00,WeatherDisplay:10.37,2013-07-08 13:56:00,
2013-07-08 08:01:00,76.1,52.6,30.10,ESE,110,0.0,0.0,44,0.00,-RA,OVC,0.00,WeatherDisplay:10.37,2013-07-08 14:01:00,
2013-07-08 08:06:00,76.7,52.5,30.10,ESE,110,0.0,0.0,43,0.00,-RA,OVC,0.00,WeatherDisplay:10.37,2013-07-08 14:06:00,
2013-07-08 08:11:00,77.5,51.9,30.10,ESE,110,0.0,0.0,41,0.00,-RA,OVC,0.00,WeatherDisplay:10.37,2013-07-08 14:11:00,
2013-07-08 08:16:00,77.9,53.6,30.10,ESE,111,0.0,0.0,43,0.00,-RA,OVC,0.00,WeatherDisplay:10.37,2013-07-08 14:16:00,
2013-07-08 08:21:00,78.2,51.9,30.10,ESE,111,0.0,0.0,40,0.00,-RA,OVC,0.00,WeatherDisplay:10.37,2013-07-08 14:21:00,
2013-07-08 08:26:00,78.2,51.2,30.10,ESE,111,0.0,0.0,39,0.00,-RA,OVC,0.00,WeatherDisplay:10.37,2013-07-08 14:26:00,
2013-07-08 08:31:00,78.4,52.1,30.10,ESE,111,0.0,0.0,40,0.00,-RA,OVC,0.00,WeatherDisplay:10.37,2013-07-08 14:31:00,
2013-07-08 08:36:00,79.1,52.0,30.10,ESE,111,2.3,2.3,39,0.00,-RA,OVC,0.00,WeatherDisplay:10.37,2013-07-08 14:36:00,
2013-07-08 08:41:00,79.9,53.4,30.10,East,82,3.5,3.5,40,0.00,-RA,OVC,0.00,WeatherDisplay:10.37,2013-07-08 14:41:00,
2013-07-08 08:46:00,80.1,53.6,30.12,East,82,1.1,1.1,40,0.00,-RA,OVC,0.00,WeatherDisplay:10.37,2013-07-08 14:46:00,
2013-07-08 08:51:00,80.1,53.6,30.12,NNE,17,3.5,3.5,40,0.00,-RA,OVC,0.00,WeatherDisplay:10.37,2013-07-08 14:51:00,
2013-07-08 08:56:00,79.9,53.4,30.12,North,360,1.1,1.1,40,0.00,-RA,OVC,0.00,WeatherDisplay:10.37,2013-07-08 14:56:00,
2013-07-08 09:01:00,80.1,53.6,30.12,North,360,1.1,1.1,40,0.00,-RA,OVC,0.00,WeatherDisplay:10.37,2013-07-08 15:01:00,
2013-07-08 09:06:00,80.2,53.0,30.12,North,355,3.5,3.5,39,0.00,-RA,OVC,0.00,WeatherDisplay:10.37,2013-07-08 15:06:00,
2013-07-08 09:11:00,80.6,53.4,30.12,North,355,0.0,0.0,39,0.00,-RA,OVC,0.00,WeatherDisplay:10.37,2013-07-08 15:11:00,
2013-07-08 09:16:00,80.7,53.4,30.12,WSW,241,1.1,0.0,39,0.00,-RA,OVC,0.00,WeatherDisplay:10.37,2013-07-08 15:16:00,
2013-07-08 09:21:00,81.0,53.7,30.12,WSW,241,0.0,0.0,39,0.00,-RA,OVC,0.00,WeatherDisplay:10.37,2013-07-08 15:21:00,
2013-07-08 09:26:00,81.4,55.4,30.12,WSW,242,1.1,1.1,41,0.00,-RA,OVC,0.00,WeatherDisplay:10.37,2013-07-08 15:26:00,
2013-07-08 09:31:00,81.9,55.2,30.12,WSW,242,1.1,0.0,40,0.00,-RA,OVC,0.00,WeatherDisplay:10.37,2013-07-08 15:31:00,
2013-07-08 09:36:00,82.3,55.6,30.12,WSW,242,1.1,1.1,40,0.00,-RA,OVC,0.00,WeatherDisplay:10.37,2013-07-08 15:36:00,
2013-07-08 09:41:00,82.8,54.6,30.12,WSW,244,0.0,0.1,38,0.00,-RA,OVC,0.00,WeatherDisplay:10.37,2013-07-08 15:41:00,
2013-07-08 09:46:00,83.4,54.4,30.12,WSW,244,1.1,1.1,37,0.00,-RA,OVC,0.00,WeatherDisplay:10.37,2013-07-08 15:46:00,
2013-07-08 09:51:00,83.7,54.7,30.12,WSW,244,2.3,2.3,37,0.00,-RA,OVC,0.00,WeatherDisplay:10.37,2013-07-08 15:51:00,
2013-07-08 09:56:00,83.8,55.5,30.12,WSW,242,1.1,1.1,38,0.00,-RA,OVC,0.00,WeatherDisplay:10.37,2013-07-08 15:56:00,
2013-07-08 10:01:00,83.8,54.7,30.12,SW,215,3.5,3.5,37,0.00,-RA,OVC,0.00,WeatherDisplay:10.37,2013-07-08 16:01:00,
2013-07-08 10:06:00,84.1,55.7,30.12,SW,215,1.1,1.1,38,0.00,-RA,OVC,0.00,WeatherDisplay:10.37,2013-07-08 16:06:00,
2013-07-08 10:11:00,84.3,55.2,30.12,SW,219,1.1,1.1,37,0.00,-RA,OVC,0.00,WeatherDisplay:10.37,2013-07-08 16:11:00,
2013-07-08 10:16:00,84.9,55.7,30.13,SW,223,3.5,3.5,37,0.00,-RA,OVC,0.00,WeatherDisplay:10.37,2013-07-08 16:16:00,
2013-07-08 10:21:00,85.5,54.7,30.13,SW,231,2.0,2.0,35,0.00,-RA,OVC,0.00,WeatherDisplay:10.37,2013-07-08 16:21:00,
2013-07-08 10:26:00,85.6,54.0,30.13,WSW,247,4.6,4.6,34,0.00,-RA,OVC,0.00,WeatherDisplay:10.37,2013-07-08 16:26:00,
2013-07-08 10:31:00,85.9,55.1,30.13,WSW,246,3.5,0.0,35,0.00,-RA,OVC,0.00,WeatherDisplay:10.37,2013-07-08 16:31:00,
2013-07-08 10:36:00,86.1,54.5,30.13,SSW,205,3.5,3.5,34,0.00,-RA,OVC,0.00,WeatherDisplay:10.37,2013-07-08 16:36:00,
2013-07-08 10:41:00,85.9,54.3,30.13,SW,221,3.5,3.5,34,0.00,-RA,OVC,0.00,WeatherDisplay:10.37,2013-07-08 16:41:00,
2013-07-08 10:46:00,85.9,54.3,30.13,SW,221,2.3,2.3,34,0.00,-RA,OVC,0.00,WeatherDisplay:10.37,2013-07-08 16:46:00,
2013-07-08 10:52:00,86.1,54.5,30.13,SW,226,3.5,3.5,34,0.00,-RA,OVC,0.00,WeatherDisplay:10.37,2013-07-08 16:52:00,
2013-07-08 10:57:00,86.6,54.1,30.12,SW,228,2.0,2.0,33,0.00,-RA,OVC,0.00,WeatherDisplay:10.37,2013-07-08 16:57:00,
2013-07-08 11:02:00,87.3,54.7,30.12,SW,227,2.3,2.3,33,0.00,-RA,OVC,0.00,WeatherDisplay:10.37,2013-07-08 17:02:00,
2013-07-08 11:07:00,87.9,53.5,30.12,SW,227,3.0,3.0,31,0.00,-RA,OVC,0.00,WeatherDisplay:10.37,2013-07-08 17:07:00,
2013-07-08 11:12:00,88.0,54.4,30.12,SSW,195,1.1,1.1,32,0.00,-RA,OVC,0.00,WeatherDisplay:10.37,2013-07-08 17:12:00,
2013-07-08 11:17:00,88.4,53.9,30.12,SW,220,3.5,3.5,31,0.00,-RA,OVC,0.00,WeatherDisplay:10.37,2013-07-08 17:17:00,
2013-07-08 11:23:00,88.4,53.9,30.12,SW,218,3.5,3.5,31,0.00,-RA,OVC,0.00,WeatherDisplay:10.37,2013-07-08 17:23:00,
2013-07-08 11:28:00,88.7,53.3,30.12,SW,235,3.5,3.5,30,0.00,-RA,OVC,0.00,WeatherDisplay:10.37,2013-07-08 17:28:00,
2013-07-08 11:33:00,89.0,54.4,30.13,WSW,242,2.3,2.3,31,0.00,-RA,OVC,0.00,WeatherDisplay:10.37,2013-07-08 17:33:00,
2013-07-08 11:38:00,89.8,53.3,30.13,West,273,9.2,9.2,29,0.00,-RA,OVC,0.00,WeatherDisplay:10.37,2013-07-08 17:38:00,
2013-07-08 11:44:00,89.9,53.4,30.13,WSW,238,3.5,3.5,29,0.00,-RA,OVC,0.00,WeatherDisplay:10.37,2013-07-08 17:44:00,
2013-07-08 11:49:00,90.1,55.4,30.13,WSW,246,3.5,3.5,31,0.00,-RA,OVC,0.00,WeatherDisplay:10.37,2013-07-08 17:49:00,
2013-07-08 11:54:00,90.1,53.6,30.13,WNW,292,6.0,6.0,29,0.00,-RA,OVC,0.00,WeatherDisplay:10.37,2013-07-08 17:54:00,
2013-07-08 11:59:00,89.8,52.3,30.13,West,265,3.5,3.5,28,0.00,-RA,OVC,0.00,WeatherDisplay:10.37,2013-07-08 17:59:00,
2013-07-08 12:05:00,90.1,52.6,30.13,SW,229,4.6,4.6,28,0.00,-RA,OVC,0.00,WeatherDisplay:10.37,2013-07-08 18:05:00,
2013-07-08 12:12:00,90.7,55.0,30.13,WSW,245,4.0,4.0,30,0.00,-RA,OVC,0.00,WeatherDisplay:10.37,2013-07-08 18:12:00,
2013-07-08 12:17:00,91.0,53.4,30.13,WSW,257,3.5,3.5,28,0.00,-RA,OVC,0.00,WeatherDisplay:10.37,2013-07-08 18:17:00,
2013-07-08 12:22:00,91.1,52.5,30.13,West,260,7.0,7.0,27,0.00,-RA,OVC,0.00,WeatherDisplay:10.37,2013-07-08 18:22:00,
2013-07-08 12:27:00,90.8,54.2,30.13,WSW,248,3.5,3.5,29,0.00,-RA,OVC,0.00,WeatherDisplay:10.37,2013-07-08 18:27:00,
2013-07-08 12:33:00,90.9,51.3,30.13,WSW,250,2.3,2.3,26,0.00,-RA,OVC,0.00,WeatherDisplay:10.37,2013-07-08 18:33:00,
2013-07-08 12:38:00,90.7,52.1,30.13,West,269,3.5,3.5,27,0.00,-RA,OVC,0.00,WeatherDisplay:10.37,2013-07-08 18:38:00,
2013-07-08 12:44:00,90.2,50.7,30.11,West,269,5.8,5.8,26,0.00,-RA,OVC,0.00,WeatherDisplay:10.37,2013-07-08 18:44:00,
2013-07-08 12:49:00,90.2,51.7,30.11,WSW,250,3.5,3.5,27,0.00,-RA,OVC,0.00,WeatherDisplay:10.37,2013-07-08 18:49:00,
2013-07-08 12:55:00,90.9,52.3,30.11,WSW,250,1.1,0.0,27,0.00,-RA,OVC,0.00,WeatherDisplay:10.37,2013-07-08 18:55:00,
2013-07-08 13:00:00,91.1,54.4,30.11,WSW,257,3.0,3.0,29,0.00,-RA,OVC,0.00,WeatherDisplay:10.37,2013-07-08 19:00:00,
2013-07-08 13:05:00,91.3,51.6,30.11,WSW,258,1.1,1.1,26,0.00,-RA,OVC,0.00,WeatherDisplay:10.37,2013-07-08 19:05:00,
2013-07-08 13:10:00,92.2,51.3,30.11,West,259,3.5,3.5,25,0.00,-RA,OVC,0.00,WeatherDisplay:10.37,2013-07-08 19:10:00,
2013-07-08 13:15:00,92.9,49.6,30.11,West,261,9.2,9.2,23,0.00,-RA,OVC,0.00,WeatherDisplay:10.37,2013-07-08 19:15:00,
2013-07-08 13:20:00,92.8,49.6,30.11,West,271,2.3,2.3,23,0.00,-RA,OVC,0.00,WeatherDisplay:10.37,2013-07-08 19:20:00,
2013-07-08 13:26:00,92.6,49.4,30.11,South,190,1.1,1.1,23,0.00,-RA,OVC,0.00,WeatherDisplay:10.37,2013-07-08 19:26:00,
2013-07-08 13:33:00,93.3,50.0,30.11,West,275,5.8,5.8,23,0.00,-RA,OVC,0.00,WeatherDisplay:10.37,2013-07-08 19:33:00,
2013-07-08 13:39:00,92.8,50.7,30.11,West,259,1.1,1.1,24,0.00,-RA,OVC,0.00,WeatherDisplay:10.37,2013-07-08 19:39:00,
2013-07-08 13:45:00,93.0,49.7,30.11,West,259,2.3,2.3,23,0.00,-RA,OVC,0.00,WeatherDisplay:10.37,2013-07-08 19:45:00,
2013-07-08 13:50:00,92.8,49.6,30.11,West,270,3.5,3.5,23,0.00,-RA,OVC,0.00,WeatherDisplay:10.37,2013-07-08 19:50:00,
2013-07-08 13:55:00,92.3,49.1,30.11,West,271,3.5,3.5,23,0.00,-RA,OVC,0.00,WeatherDisplay:10.37,2013-07-08 19:55:00,
2013-07-08 14:01:00,91.7,49.8,30.11,West,274,5.8,5.8,24,0.00,-RA,OVC,0.00,WeatherDisplay:10.37,2013-07-08 20:01:00,
2013-07-08 14:06:00,91.5,50.7,30.11,West,274,1.1,1.1,25,0.00,-RA,OVC,0.00,WeatherDisplay:10.37,2013-07-08 20:06:00,
2013-07-08 14:11:00,91.7,48.6,30.11,West,277,1.1,1.1,23,0.00,-RA,OVC,0.00,WeatherDisplay:10.37,2013-07-08 20:11:00,
2013-07-08 14:18:00,92.2,49.1,30.11,West,269,1.1,1.1,23,0.00,-RA,OVC,0.00,WeatherDisplay:10.37,2013-07-08 20:18:00,
2013-07-08 14:23:00,92.8,49.6,30.11,WSW,256,3.5,3.5,23,0.00,-RA,OVC,0.00,WeatherDisplay:10.37,2013-07-08 20:23:00,
2013-07-08 14:28:00,93.0,48.5,30.11,WSW,251,2.3,2.3,22,0.00,-RA,OVC,0.00,WeatherDisplay:10.37,2013-07-08 20:28:00,
2013-07-08 14:33:00,93.4,47.6,30.11,West,267,3.5,3.5,21,0.00,-RA,OVC,0.00,WeatherDisplay:10.37,2013-07-08 20:33:00,
2013-07-08 14:38:00,93.7,47.9,30.11,West,273,2.3,2.3,21,0.00,-RA,OVC,0.00,WeatherDisplay:10.37,2013-07-08 20:38:00,
2013-07-08 14:44:00,94.3,48.4,30.11,West,265,2.3,2.3,21,0.00,-RA,OVC,0.00,WeatherDisplay:10.37,2013-07-08 20:44:00,
2013-07-08 14:50:00,95.0,48.9,30.11,West,270,1.1,1.1,21,0.00,-RA,OVC,0.00,WeatherDisplay:10.37,2013-07-08 20:50:00,
2013-07-08 14:55:00,95.2,46.4,30.11,West,273,2.3,2.3,19,0.00,-RA,OVC,0.00,WeatherDisplay:10.37,2013-07-08 20:55:00,
2013-07-08 15:00:00,95.0,47.6,30.11,West,275,3.5,3.5,20,0.00,-RA,OVC,0.00,WeatherDisplay:10.37,2013-07-08 21:00:00,
2013-07-08 15:05:00,94.9,47.6,30.11,West,275,1.1,1.1,20,0.00,-RA,OVC,0.00,WeatherDisplay:10.37,2013-07-08 21:05:00,
2013-07-08 15:11:00,94.6,48.6,30.11,WNW,284,3.5,3.5,21,0.00,-RA,OVC,0.00,WeatherDisplay:10.37,2013-07-08 21:11:00,
2013-07-08 15:16:00,94.6,47.3,30.11,WNW,284,1.1,1.1,20,0.00,-RA,OVC,0.00,WeatherDisplay:10.37,2013-07-08 21:16:00,
2013-07-08 15:22:00,95.0,47.6,30.11,NNE,26,5.8,5.8,20,0.00,-RA,OVC,0.00,WeatherDisplay:10.37,2013-07-08 21:22:00,
2013-07-08 15:27:00,94.3,48.4,30.11,NNE,32,2.3,2.3,21,0.00,-RA,OVC,0.00,WeatherDisplay:10.37,2013-07-08 21:27:00,
2013-07-08 15:32:00,93.9,45.4,30.08,NNE,32,1.1,1.1,19,0.00,-RA,OVC,0.00,WeatherDisplay:10.37,2013-07-08 21:32:00,
2013-07-08 15:37:00,93.5,45.1,30.08,NNE,32,1.1,1.1,19,0.00,-RA,OVC,0.00,WeatherDisplay:10.37,2013-07-08 21:37:00,
2013-07-08 15:42:00,92.8,47.1,30.08,NE,34,3.5,3.5,21,0.00,-RA,OVC,0.00,WeatherDisplay:10.37,2013-07-08 21:42:00,
2013-07-08 15:48:00,91.5,48.5,30.08,South,188,2.3,2.8,23,0.00,-RA,OVC,0.00,WeatherDisplay:10.37,2013-07-08 21:48:00,
2013-07-08 15:54:00,90.2,48.5,30.08,South,188,3.5,3.5,24,0.00,-RA,OVC,0.00,WeatherDisplay:10.37,2013-07-08 21:54:00,
2013-07-08 15:59:00,89.2,47.7,30.08,South,170,12.7,12.7,24,0.00,-RA,OVC,0.00,WeatherDisplay:10.37,2013-07-08 21:59:00,
2013-07-08 16:06:00,89.3,48.9,30.08,SSW,208,4.6,4.6,25,0.00,-RA,OVC,0.00,WeatherDisplay:10.37,2013-07-08 22:06:00,
2013-07-08 16:12:00,89.0,47.5,30.08,SSW,209,2.3,2.3,24,0.00,-RA,OVC,0.00,WeatherDisplay:10.37,2013-07-08 22:12:00,
2013-07-08 16:18:00,88.4,48.1,30.08,SSW,202,3.5,3.5,25,0.00,-RA,OVC,0.00,WeatherDisplay:10.37,2013-07-08 22:18:00,
2013-07-08 16:24:00,88.0,47.8,30.08,SSW,209,10.4,10.4,25,0.00,-RA,OVC,0.00,WeatherDisplay:10.37,2013-07-08 22:24:00,
2013-07-08 16:29:00,88.4,47.0,30.08,SSW,194,8.1,8.1,24,0.00,-RA,OVC,0.00,WeatherDisplay:10.37,2013-07-08 22:29:00,
2013-07-08 16:34:00,89.2,48.8,30.08,SSW,195,2.3,2.3,25,0.00,-RA,OVC,0.00,WeatherDisplay:10.37,2013-07-08 22:34:00,
2013-07-08 16:39:00,89.7,48.1,30.08,South,181,3.5,3.5,24,0.00,-RA,OVC,0.00,WeatherDisplay:10.37,2013-07-08 22:39:00,
2013-07-08 16:46:00,90.3,48.6,30.08,SSW,194,2.3,2.3,24,0.00,-RA,OVC,0.00,WeatherDisplay:10.37,2013-07-08 22:46:00,
2013-07-08 16:51:00,90.6,46.5,30.08,WSW,238,3.5,3.5,22,0.00,-RA,OVC,0.00,WeatherDisplay:10.37,2013-07-08 22:51:00,
2013-07-08 16:57:00,90.1,47.3,30.08,SW,226,3.5,3.5,23,0.00,-RA,OVC,0.00,WeatherDisplay:10.37,2013-07-08 22:57:00,
2013-07-08 17:02:00,89.9,47.1,30.08,WSW,243,1.1,1.1,23,0.00,-RA,OVC,0.00,WeatherDisplay:10.37,2013-07-08 23:02:00,
2013-07-08 17:07:00,90.0,48.4,30.08,WSW,242,1.1,0.0,24,0.00,-RA,OVC,0.00,WeatherDisplay:10.37,2013-07-08 23:07:00,
2013-07-08 17:14:00,90.7,46.6,30.08,WNW,285,3.5,3.5,22,0.00,-RA,OVC,0.00,WeatherDisplay:10.37,2013-07-08 23:14:00,
2013-07-08 17:19:00,91.2,48.2,30.08,WSW,252,1.1,1.1,23,0.00,-RA,OVC,0.00,WeatherDisplay:10.37,2013-07-08 23:19:00,
2013-07-08 17:25:00,91.3,48.3,30.08,West,272,4.0,4.0,23,0.00,-RA,OVC,0.00,WeatherDisplay:10.37,2013-07-08 23:25:00,
2013-07-08 17:30:00,91.2,47.0,30.08,SSE,165,3.5,3.5,22,0.00,-RA,OVC,0.00,WeatherDisplay:10.37,2013-07-08 23:30:00,
2013-07-08 17:35:00,90.8,45.5,30.08,WSW,239,3.5,3.5,21,0.00,-RA,OVC,0.00,WeatherDisplay:10.37,2013-07-08 23:35:00,
2013-07-08 17:40:00,90.3,48.6,30.08,WSW,239,0.0,0.0,24,0.00,-RA,OVC,0.00,WeatherDisplay:10.37,2013-07-08 23:40:00,
2013-07-08 17:45:00,89.9,47.1,30.09,WSW,251,1.1,1.1,23,0.00,-RA,OVC,0.00,WeatherDisplay:10.37,2013-07-08 23:45:00,
2013-07-08 17:51:00,89.5,46.8,30.09,WSW,253,3.5,3.5,23,0.00,-RA,OVC,0.00,WeatherDisplay:10.37,2013-07-08 23:51:00,
2013-07-08 17:56:00,89.1,45.3,30.09,WSW,248,3.5,3.5,22,0.00,-RA,OVC,0.00,WeatherDisplay:10.37,2013-07-08 23:56:00,
2013-07-08 18:01:00,89.0,48.6,30.09,WSW,245,2.3,0.0,25,0.00,-RA,OVC,0.00,WeatherDisplay:10.37,2013-07-09 00:01:00,
2013-07-08 18:06:00,88.9,49.6,30.09,WSW,252,3.5,3.5,26,0.00,-RA,OVC,0.00,WeatherDisplay:10.37,2013-07-09 00:06:00,
2013-07-08 18:12:00,88.9,50.6,30.09,WSW,250,1.1,1.1,27,0.00,-RA,OVC,0.00,WeatherDisplay:10.37,2013-07-09 00:12:00,
2013-07-08 18:17:00,89.0,50.7,30.09,WSW,248,1.1,0.0,27,0.00,-RA,OVC,0.00,WeatherDisplay:10.37,2013-07-09 00:17:00,
2013-07-08 18:22:00,89.0,50.7,30.09,SSW,200,3.5,3.5,27,0.00,-RA,OVC,0.00,WeatherDisplay:10.37,2013-07-09 00:22:00,
2013-07-08 18:27:00,88.7,50.4,30.09,WSW,254,2.3,2.3,27,0.00,-RA,OVC,0.00,WeatherDisplay:10.37,2013-07-09 00:27:00,
2013-07-08 18:32:00,88.6,50.3,30.09,SSW,204,1.1,0.0,27,0.00,-RA,OVC,0.00,WeatherDisplay:10.37,2013-07-09 00:32:00,
2013-07-08 18:38:00,88.6,50.3,30.09,SSW,197,1.1,1.3,27,0.00,-RA,OVC,0.00,WeatherDisplay:10.37,2013-07-09 00:38:00,
2013-07-08 18:43:00,88.5,50.3,30.10,SSW,203,4.6,4.6,27,0.00,-RA,OVC,0.00,WeatherDisplay:10.37,2013-07-09 00:43:00,
2013-07-08 18:48:00,88.1,49.9,30.10,South,180,3.5,3.5,27,0.00,-RA,OVC,0.00,WeatherDisplay:10.37,2013-07-09 00:48:00,
2013-07-08 18:54:00,87.9,49.7,30.10,WSW,257,2.3,2.3,27,0.00,-RA,OVC,0.00,WeatherDisplay:10.37,2013-07-09 00:54:00,
2013-07-08 18:59:00,87.5,49.4,30.10,SW,235,1.1,1.1,27,0.00,-RA,OVC,0.00,WeatherDisplay:10.37,2013-07-09 00:59:00,
2013-07-08 19:05:00,87.2,50.1,30.10,SW,235,1.1,1.1,28,0.00,-RA,OVC,0.00,WeatherDisplay:10.37,2013-07-09 01:05:00,
2013-07-08 19:10:00,87.2,49.1,30.10,SW,235,0.0,0.0,27,0.00,-RA,OVC,0.00,WeatherDisplay:10.37,2013-07-09 01:10:00,
2013-07-08 19:16:00,87.2,50.1,30.10,SW,235,1.1,1.1,28,0.00,-RA,OVC,0.00,WeatherDisplay:10.37,2013-07-09 01:16:00,
2013-07-08 19:21:00,87.3,50.2,30.10,SW,235,0.0,0.0,28,0.00,-RA,OVC,0.00,WeatherDisplay:10.37,2013-07-09 01:21:00,
2013-07-08 19:26:00,87.4,51.2,30.10,SW,235,1.1,1.1,29,0.00,-RA,OVC,0.00,WeatherDisplay:10.37,2013-07-09 01:26:00,
2013-07-08 19:32:00,87.4,51.2,30.10,SW,235,0.0,0.0,29,0.00,-RA,OVC,0.00,WeatherDisplay:10.37,2013-07-09 01:32:00,
2013-07-08 19:39:00,86.9,49.9,30.10,SW,235,0.0,0.0,28,0.00,-RA,OVC,0.00,WeatherDisplay:10.37,2013-07-09 01:39:00,
2013-07-08 19:44:00,86.4,49.4,30.10,SW,235,0.0,0.0,28,0.00,-RA,OVC,0.00,WeatherDisplay:10.37,2013-07-09 01:44:00,
2013-07-08 19:49:00,85.8,51.7,30.10,SW,235,0.0,0.0,31,0.00,-RA,OVC,0.00,WeatherDisplay:10.37,2013-07-09 01:49:00,
2013-07-08 19:54:00,85.2,51.1,30.10,SW,235,0.0,0.0,31,0.00,-RA,OVC,0.00,WeatherDisplay:10.37,2013-07-09 01:54:00,
2013-07-08 19:59:00,84.6,51.5,30.10,SW,235,0.0,0.0,32,0.00,-RA,OVC,0.00,WeatherDisplay:10.37,2013-07-09 01:59:00,
2013-07-08 20:04:00,84.1,52.7,30.10,SW,235,0.0,0.0,34,0.00,-RA,OVC,0.00,WeatherDisplay:10.37,2013-07-09 02:04:00,
2013-07-08 20:09:00,83.4,54.4,30.10,SW,235,0.0,0.0,37,0.00,-RA,OVC,0.00,WeatherDisplay:10.37,2013-07-09 02:09:00,
2013-07-08 20:15:00,82.4,53.5,30.10,SW,235,0.0,0.0,37,0.00,-RA,OVC,0.00,WeatherDisplay:10.37,2013-07-09 02:15:00,
2013-07-08 20:20:00,81.3,54.0,30.10,SW,235,0.0,0.0,39,0.00,-RA,OVC,0.00,WeatherDisplay:10.37,2013-07-09 02:20:00,
2013-07-08 20:26:00,80.5,52.6,30.10,SW,235,0.0,0.0,38,0.00,-RA,OVC,0.00,WeatherDisplay:10.37,2013-07-09 02:26:00,
2013-07-08 20:31:00,79.9,53.4,30.10,SW,235,0.0,0.0,40,0.00,-RA,OVC,0.00,WeatherDisplay:10.37,2013-07-09 02:31:00,
2013-07-08 20:37:00,79.3,53.6,30.11,SW,235,0.0,0.0,41,0.00,-RA,OVC,0.00,WeatherDisplay:10.37,2013-07-09 02:37:00,
2013-07-08 20:42:00,78.6,52.3,30.11,SW,235,0.0,0.0,40,0.00,-RA,OVC,0.00,WeatherDisplay:10.37,2013-07-09 02:42:00,
2013-07-08 20:47:00,78.1,52.5,30.11,SW,235,0.0,0.0,41,0.00,-RA,OVC,0.00,WeatherDisplay:10.37,2013-07-09 02:47:00,
2013-07-08 20:52:00,77.6,52.0,30.11,SW,235,0.0,0.0,41,0.00,-RA,OVC,0.00,WeatherDisplay:10.37,2013-07-09 02:52:00,
2013-07-08 20:57:00,77.1,52.2,30.11,SW,235,0.0,0.0,42,0.00,-RA,OVC,0.00,WeatherDisplay:10.37,2013-07-09 02:57:00,
2013-07-08 21:03:00,76.5,53.0,30.11,SW,235,1.1,0.0,44,0.00,-RA,OVC,0.00,WeatherDisplay:10.37,2013-07-09 03:03:00,
2013-07-08 21:08:00,76.1,52.6,30.11,SW,235,0.0,0.0,44,0.00,-RA,OVC,0.00,WeatherDisplay:10.37,2013-07-09 03:08:00,
2013-07-08 21:13:00,75.6,53.4,30.11,SW,235,0.0,0.0,46,0.00,-RA,OVC,0.00,WeatherDisplay:10.37,2013-07-09 03:13:00,
2013-07-08 21:19:00,75.1,52.3,30.11,SW,235,0.0,0.0,45,0.00,-RA,OVC,0.00,WeatherDisplay:10.37,2013-07-09 03:19:00,
2013-07-08 21:24:00,74.7,52.5,30.11,SW,235,0.0,0.0,46,0.00,-RA,OVC,0.00,WeatherDisplay:10.37,2013-07-09 03:24:00,
2013-07-08 21:29:00,74.4,52.9,30.11,SW,235,0.0,0.0,47,0.00,-RA,OVC,0.00,WeatherDisplay:10.37,2013-07-09 03:29:00,
2013-07-08 21:36:00,73.9,53.0,30.11,SW,235,1.1,0.0,48,0.00,-RA,OVC,0.00,WeatherDisplay:10.37,2013-07-09 03:36:00,
2013-07-08 21:41:00,73.7,52.8,30.11,SW,235,0.0,0.0,48,0.00,-RA,OVC,0.00,WeatherDisplay:10.37,2013-07-09 03:41:00,
2013-07-08 21:47:00,73.4,52.5,30.11,SW,235,1.1,0.0,48,0.00,-RA,OVC,0.00,WeatherDisplay:10.37,2013-07-09 03:47:00,
2013-07-08 21:52:00,73.2,52.3,30.11,SW,235,0.0,0.0,48,0.00,-RA,OVC,0.00,WeatherDisplay:10.37,2013-07-09 03:52:00,
2013-07-08 21:57:00,73.0,52.1,30.11,SW,235,0.0,0.0,48,0.00,-RA,OVC,0.00,WeatherDisplay:10.37,2013-07-09 03:57:00,
2013-07-08 22:01:00,72.8,51.4,30.11,SW,235,0.0,0.0,47,0.00,-RA,OVC,0.00,WeatherDisplay:10.37,2013-07-09 04:01:00,
2013-07-08 22:02:00,72.8,51.4,30.11,SW,235,0.0,0.0,47,0.00,-RA,OVC,0.00,WeatherDisplay:10.37,2013-07-09 04:02:00,
2013-07-08 22:07:00,72.6,51.2,30.11,SW,235,0.0,0.0,47,0.00,-RA,OVC,0.00,WeatherDisplay:10.37,2013-07-09 04:07:00,
2013-07-08 22:12:00,72.5,51.1,30.11,SW,235,0.0,0.0,47,0.00,-RA,OVC,0.00,WeatherDisplay:10.37,2013-07-09 04:12:00,
2013-07-08 22:17:00,72.3,50.4,30.11,SW,235,0.0,0.0,46,0.00,-RA,OVC,0.00,WeatherDisplay:10.37,2013-07-09 04:17:00,
2013-07-08 22:22:00,72.1,50.8,30.11,SW,235,0.0,0.0,47,0.00,-RA,OVC,0.00,WeatherDisplay:10.37,2013-07-09 04:22:00,
2013-07-08 22:27:00,71.9,50.6,30.11,SW,235,0.0,0.0,47,0.00,-RA,OVC,0.00,WeatherDisplay:10.37,2013-07-09 04:27:00,
2013-07-08 22:32:00,71.7,51.5,30.11,SW,235,0.0,0.0,49,0.00,-RA,OVC,0.00,WeatherDisplay:10.37,2013-07-09 04:32:00,
2013-07-08 22:37:00,71.4,51.8,30.11,SW,235,0.0,0.0,50,0.00,-RA,OVC,0.00,WeatherDisplay:10.37,2013-07-09 04:37:00,
2013-07-08 22:42:00,71.2,51.6,30.15,SW,235,1.1,0.0,50,0.00,-RA,OVC,0.00,WeatherDisplay:10.37,2013-07-09 04:42:00,
2013-07-08 22:47:00,71.0,50.9,30.15,SW,235,0.0,0.0,49,0.00,-RA,OVC,0.00,WeatherDisplay:10.37,2013-07-09 04:47:00,
2013-07-08 22:52:00,70.8,50.7,30.15,SW,235,0.0,0.0,49,0.00,-RA,OVC,0.00,WeatherDisplay:10.37,2013-07-09 04:52:00,
2013-07-08 22:57:00,70.6,50.5,30.15,SW,235,0.0,0.0,49,0.00,-RA,OVC,0.00,WeatherDisplay:10.37,2013-07-09 04:57:00,
2013-07-08 23:02:00,70.3,51.3,30.15,SW,235,0.0,0.0,51,0.00,-RA,OVC,0.00,WeatherDisplay:10.37,2013-07-09 05:02:00,
2013-07-08 23:07:00,70.0,51.0,30.15,SW,235,0.0,0.0,51,0.00,-RA,OVC,0.00,WeatherDisplay:10.37,2013-07-09 05:07:00,
2013-07-08 23:12:00,69.7,52.3,30.15,SW,235,0.0,0.0,54,0.00,-RA,OVC,0.00,WeatherDisplay:10.37,2013-07-09 05:12:00,
2013-07-08 23:17:00,69.4,52.0,30.15,SW,235,1.1,0.0,54,0.00,-RA,OVC,0.00,WeatherDisplay:10.37,2013-07-09 05:17:00,
2013-07-08 23:22:00,69.3,51.9,30.15,SW,235,0.0,0.0,54,0.00,-RA,OVC,0.00,WeatherDisplay:10.37,2013-07-09 05:22:00,
2013-07-08 23:27:00,69.3,51.4,30.15,SW,235,0.0,0.0,53,0.00,-RA,OVC,0.00,WeatherDisplay:10.37,2013-07-09 05:27:00,
2013-07-08 23:32:00,69.2,51.3,30.15,SW,235,0.0,0.0,53,0.00,-RA,OVC,0.00,WeatherDisplay:10.37,2013-07-09 05:32:00,
2013-07-08 23:37:00,69.1,51.8,30.15,SW,235,0.0,0.0,54,0.00,-RA,OVC,0.00,WeatherDisplay:10.37,2013-07-09 05:37:00,
2013-07-08 23:42:00,68.8,51.0,30.15,SW,235,0.0,0.0,53,0.00,-RA,OVC,0.00,WeatherDisplay:10.37,2013-07-09 05:42:00,
2013-07-08 23:47:00,68.6,50.8,30.15,SW,235,0.0,0.0,53,0.00,-RA,OVC,0.00,WeatherDisplay:10.37,2013-07-09 05:47:00,
2013-07-08 23:52:00,68.4,51.1,30.15,SW,235,0.0,0.0,54,0.00,-RA,OVC,0.00,WeatherDisplay:10.37,2013-07-09 05:52:00,
2013-07-08 23:57:00,68.1,50.8,30.15,SW,235,0.0,0.0,54,0.00,-RA,OVC,0.00,WeatherDisplay:10.37,2013-07-09 05:57:00,